createdAt,value
2023-02-15T00:01:42.212Z,17.50
2023-02-15T00:04:10.266Z,17.00
2023-02-15T00:06:36.981Z,16.63
2023-02-15T00:09:04.525Z,16.63
2023-02-15T00:11:40.797Z,15.40
2023-02-15T00:14:08.683Z,16.73
2023-02-15T00:16:36.354Z,16.60
2023-02-15T00:19:04.023Z,17.37
2023-02-15T00:21:32.815Z,15.50
2023-02-15T00:24:01.011Z,16.07
2023-02-15T00:26:27.978Z,16.10
2023-02-15T00:28:55.642Z,15.83
2023-02-15T00:31:22.537Z,16.63
2023-02-15T00:33:49.340Z,17.20
2023-02-15T00:36:16.054Z,16.37
2023-02-15T00:38:42.770Z,16.27
2023-02-15T00:41:10.333Z,15.33
2023-02-15T00:43:37.673Z,15.50
2023-02-15T00:46:05.924Z,14.73
2023-02-15T00:48:32.638Z,15.03
2023-02-15T00:51:00.934Z,15.07
2023-02-15T00:53:28.601Z,15.00
2023-02-15T00:55:55.486Z,14.47
2023-02-15T00:58:22.456Z,14.53
2023-02-15T01:00:49.654Z,13.93
2023-02-15T01:03:17.935Z,15.10
2023-02-15T01:05:45.196Z,14.37
2023-02-15T01:08:11.901Z,14.77
2023-02-15T01:10:38.877Z,14.90
2023-02-15T01:13:06.231Z,13.23
2023-02-15T01:15:36.435Z,13.63
2023-02-15T01:18:03.227Z,13.43
2023-02-15T01:20:30.111Z,14.10
2023-02-15T01:22:58.203Z,13.47
2023-02-15T01:25:25.647Z,14.00
2023-02-15T01:27:52.537Z,13.97
2023-02-15T01:30:19.354Z,15.23
2023-02-15T01:32:46.039Z,14.87
2023-02-15T01:35:12.786Z,13.37
2023-02-15T01:37:39.752Z,14.47
2023-02-15T01:40:09.698Z,14.27
2023-02-15T01:42:36.439Z,14.57
2023-02-15T01:45:30.673Z,13.33
2023-02-15T01:48:13.307Z,13.90
2023-02-15T01:50:48.031Z,13.50
2023-02-15T01:53:42.047Z,13.37
2023-02-15T01:56:18.363Z,13.63
2023-02-15T01:58:46.386Z,12.37
2023-02-15T02:01:13.273Z,13.10
2023-02-15T02:04:08.098Z,12.27
2023-02-15T02:06:36.712Z,12.07
2023-02-15T02:09:04.526Z,11.97
2023-02-15T02:11:31.605Z,12.53
2023-02-15T02:13:58.318Z,11.40
2023-02-15T02:16:28.901Z,11.90
2023-02-15T02:19:06.441Z,11.43
2023-02-15T02:22:09.574Z,12.93
2023-02-15T02:24:42.096Z,12.10
2023-02-15T02:27:48.306Z,12.70
2023-02-15T02:30:42.418Z,10.73
2023-02-15T02:33:12.778Z,12.27
2023-02-15T02:36:17.594Z,12.17
2023-02-15T02:39:13.973Z,11.97
2023-02-15T02:42:19.265Z,11.63
2023-02-15T02:44:53.108Z,11.40
2023-02-15T02:47:34.076Z,13.30
2023-02-15T02:50:09.731Z,12.10
2023-02-15T02:52:46.156Z,12.50
2023-02-15T02:55:32.596Z,11.83
2023-02-15T02:58:18.984Z,11.10
2023-02-15T03:00:58.808Z,12.30
2023-02-15T03:03:38.778Z,10.17
2023-02-15T03:06:29.430Z,11.27
2023-02-15T03:09:02.352Z,11.83
2023-02-15T03:11:29.202Z,11.27
2023-02-15T03:13:55.908Z,11.87
2023-02-15T03:16:29.070Z,11.77
2023-02-15T03:19:13.283Z,11.90
2023-02-15T03:21:43.137Z,11.87
2023-02-15T03:24:18.579Z,13.03
2023-02-15T03:26:50.746Z,12.23
2023-02-15T03:29:19.509Z,12.73
2023-02-15T03:31:51.084Z,11.07
2023-02-15T03:34:18.782Z,12.77
2023-02-15T03:36:55.093Z,12.97
2023-02-15T03:39:44.076Z,11.63
2023-02-15T03:42:33.976Z,12.10
2023-02-15T03:45:08.210Z,11.93
2023-02-15T03:47:44.131Z,12.20
2023-02-15T03:50:37.142Z,12.57
2023-02-15T03:53:07.105Z,11.50
2023-02-15T03:55:35.785Z,13.00
2023-02-15T03:58:34.989Z,13.30
2023-02-15T04:01:39.341Z,12.33
2023-02-15T04:04:20.147Z,12.23
2023-02-15T04:06:47.141Z,10.97
2023-02-15T04:09:32.900Z,12.97
2023-02-15T04:11:59.706Z,13.30
2023-02-15T04:14:45.346Z,11.93
2023-02-15T04:17:12.048Z,12.37
2023-02-15T04:19:57.134Z,12.00
2023-02-15T04:22:42.733Z,12.00
2023-02-15T04:25:15.532Z,12.77
2023-02-15T04:27:51.414Z,12.77
2023-02-15T04:30:21.124Z,12.37
2023-02-15T04:32:48.256Z,13.00
2023-02-15T04:35:15.259Z,12.83
2023-02-15T04:37:42.734Z,13.43
2023-02-15T04:40:12.140Z,12.57
2023-02-15T04:42:39.041Z,12.93
2023-02-15T04:45:06.470Z,12.67
2023-02-15T04:47:33.468Z,12.17
2023-02-15T04:50:00.142Z,11.70
2023-02-15T04:52:26.918Z,12.83
2023-02-15T04:54:53.616Z,13.03
2023-02-15T04:57:20.279Z,12.20
2023-02-15T04:59:46.983Z,11.83
2023-02-15T05:02:13.722Z,12.13
2023-02-15T05:04:40.439Z,11.40
2023-02-15T05:07:07.082Z,12.00
2023-02-15T05:09:33.696Z,11.37
2023-02-15T05:12:00.530Z,12.30
2023-02-15T05:14:27.183Z,11.87
2023-02-15T05:16:54.996Z,11.20
2023-02-15T05:19:21.818Z,11.27
2023-02-15T05:21:48.534Z,11.73
2023-02-15T05:24:34.014Z,11.33
2023-02-15T05:27:19.465Z,11.10
2023-02-15T05:29:46.145Z,10.90
2023-02-15T05:32:15.060Z,10.57
2023-02-15T05:34:41.851Z,10.40
2023-02-15T05:37:09.347Z,10.80
2023-02-15T05:39:36.011Z,11.87
2023-02-15T05:42:02.722Z,11.80
2023-02-15T05:44:29.462Z,11.80
2023-02-15T05:46:56.173Z,11.63
2023-02-15T05:49:22.889Z,12.27
2023-02-15T05:51:50.020Z,11.50
2023-02-15T05:54:16.641Z,11.27
2023-02-15T05:56:43.326Z,11.63
2023-02-15T05:59:10.142Z,12.10
2023-02-15T06:01:36.910Z,12.27
2023-02-15T06:04:03.791Z,17.10
2023-02-15T06:06:30.557Z,12.57
2023-02-15T06:08:57.209Z,11.93
2023-02-15T06:11:23.859Z,10.80
2023-02-15T06:13:50.627Z,10.00
2023-02-15T06:16:17.366Z,11.37
2023-02-15T06:18:44.146Z,11.63
2023-02-15T06:21:10.895Z,11.03
2023-02-15T06:23:37.624Z,10.17
2023-02-15T06:26:04.579Z,11.53
2023-02-15T06:28:31.596Z,14.47
2023-02-15T06:30:58.375Z,12.80
2023-02-15T06:33:25.335Z,15.63
2023-02-15T06:35:52.138Z,27.73
2023-02-15T06:38:19.109Z,14.53
2023-02-15T06:40:45.778Z,12.90
2023-02-15T06:43:12.490Z,12.47
2023-02-15T06:45:39.326Z,11.70
2023-02-15T06:48:07.975Z,11.90
2023-02-15T06:50:35.353Z,12.80
2023-02-15T06:53:02.120Z,11.57
2023-02-15T06:55:28.843Z,12.13
2023-02-15T06:57:55.498Z,11.97
2023-02-15T07:00:24.022Z,12.20
2023-02-15T07:02:59.288Z,10.97
2023-02-15T07:05:31.676Z,11.07
2023-02-15T07:07:59.832Z,12.33
2023-02-15T07:10:27.405Z,12.57
2023-02-15T07:12:54.704Z,11.47
2023-02-15T07:15:21.975Z,12.30
2023-02-15T07:17:49.141Z,12.23
2023-02-15T07:20:21.419Z,11.90
2023-02-15T07:22:48.200Z,13.33
2023-02-15T07:25:15.504Z,13.67
2023-02-15T07:27:42.167Z,13.80
2023-02-15T07:30:13.191Z,13.43
2023-02-15T07:33:00.628Z,14.07
2023-02-15T07:35:27.641Z,14.93
2023-02-15T07:37:55.326Z,15.13
2023-02-15T07:40:24.282Z,15.77
2023-02-15T07:42:54.148Z,14.83
2023-02-15T07:45:21.748Z,14.87
2023-02-15T07:47:48.488Z,14.63
2023-02-15T07:50:15.413Z,14.57
2023-02-15T07:52:42.181Z,15.07
2023-02-15T07:55:09.883Z,14.33
2023-02-15T07:57:36.639Z,13.83
2023-02-15T08:00:04.734Z,12.87
2023-02-15T08:02:31.415Z,14.07
2023-02-15T08:04:58.098Z,14.40
2023-02-15T08:07:24.804Z,14.23
2023-02-15T08:09:51.521Z,14.00
2023-02-15T08:12:18.210Z,14.73
2023-02-15T08:14:44.875Z,13.00
2023-02-15T08:17:11.934Z,13.87
2023-02-15T08:19:38.561Z,13.90
2023-02-15T08:22:07.288Z,12.47
2023-02-15T08:24:37.855Z,14.70
2023-02-15T08:27:06.575Z,14.20
2023-02-15T08:29:34.351Z,14.17
2023-02-15T08:32:07.385Z,13.30
2023-02-15T08:34:37.442Z,12.33
2023-02-15T08:37:04.363Z,12.67
2023-02-15T08:39:30.998Z,12.27
2023-02-15T08:41:57.875Z,11.77
2023-02-15T08:44:24.790Z,11.97
2023-02-15T08:46:51.535Z,11.60
2023-02-15T08:49:21.274Z,11.40
2023-02-15T08:51:49.763Z,12.93
2023-02-15T08:54:21.790Z,11.47
2023-02-15T08:56:49.137Z,11.20
2023-02-15T08:59:18.370Z,12.30
2023-02-15T09:01:46.037Z,19.13
2023-02-15T09:04:13.953Z,20.67
2023-02-15T09:06:41.916Z,17.40
2023-02-15T09:09:09.391Z,15.93
2023-02-15T09:11:39.724Z,14.47
2023-02-15T09:14:10.207Z,15.30
2023-02-15T09:16:39.013Z,14.73
2023-02-15T09:19:06.936Z,14.60
2023-02-15T09:21:36.782Z,12.70
2023-02-15T09:24:06.161Z,14.00
2023-02-15T09:26:35.732Z,13.00
2023-02-15T09:29:04.498Z,13.13
2023-02-15T09:31:33.700Z,12.10
2023-02-15T09:34:04.298Z,12.77
2023-02-15T09:36:34.775Z,12.77
2023-02-15T09:39:15.389Z,12.17
2023-02-15T09:41:57.137Z,12.50
2023-02-15T09:44:35.794Z,12.60
2023-02-15T09:47:23.359Z,14.70
2023-02-15T09:50:07.854Z,13.43
2023-02-15T09:53:02.582Z,14.57
2023-02-15T09:56:06.620Z,14.50
2023-02-15T09:58:39.728Z,15.97
2023-02-15T10:01:36.124Z,15.60
2023-02-15T10:04:21.887Z,15.47
2023-02-15T10:07:02.562Z,15.27
2023-02-15T10:10:05.161Z,15.40
2023-02-15T10:12:47.231Z,15.47
2023-02-15T10:15:35.797Z,14.93
2023-02-15T10:18:21.006Z,16.37
2023-02-15T10:21:06.718Z,15.47
2023-02-15T10:24:18.314Z,15.57
2023-02-15T10:26:49.288Z,16.83
2023-02-15T10:29:38.548Z,15.60
2023-02-15T10:32:17.458Z,17.47
2023-02-15T10:35:11.441Z,17.57
2023-02-15T10:37:48.917Z,17.17
2023-02-15T10:40:28.263Z,17.07
2023-02-15T10:42:54.926Z,16.87
2023-02-15T10:45:30.670Z,17.60
2023-02-15T10:48:33.319Z,16.97
2023-02-15T10:51:06.339Z,18.03
2023-02-15T10:53:54.417Z,16.97
2023-02-15T10:56:36.052Z,17.43
2023-02-15T10:59:29.698Z,17.10
2023-02-15T11:02:11.755Z,17.73
2023-02-15T11:05:00.569Z,17.20
2023-02-15T11:07:36.914Z,17.13
2023-02-15T11:10:16.689Z,17.97
2023-02-15T11:12:46.177Z,19.07
2023-02-15T11:15:27.846Z,16.70
2023-02-15T11:18:12.742Z,17.33
2023-02-15T11:21:02.204Z,16.27
2023-02-15T11:23:29.802Z,16.03
2023-02-15T11:26:03.027Z,16.40
2023-02-15T11:28:38.198Z,16.63
2023-02-15T11:31:18.426Z,16.50
2023-02-15T11:33:52.776Z,16.17
2023-02-15T11:36:40.986Z,16.83
2023-02-15T11:39:15.912Z,16.20
2023-02-15T11:41:47.743Z,16.83
2023-02-15T11:44:14.329Z,16.63
2023-02-15T11:46:41.117Z,17.03
2023-02-15T11:49:25.146Z,16.60
2023-02-15T11:51:53.277Z,18.57
2023-02-15T11:54:25.018Z,16.40
2023-02-15T11:56:51.804Z,16.67
2023-02-15T11:59:30.605Z,16.80
2023-02-15T12:01:57.274Z,16.93
2023-02-15T12:04:35.632Z,17.47
2023-02-15T12:07:26.634Z,17.10
2023-02-15T12:09:57.537Z,16.63
2023-02-15T12:12:33.550Z,16.10
2023-02-15T12:15:06.547Z,17.27
2023-02-15T12:17:41.517Z,16.30
2023-02-15T12:20:21.843Z,17.70
2023-02-15T12:22:59.504Z,17.70
2023-02-15T12:25:40.773Z,16.80
2023-02-15T12:28:42.149Z,17.93
2023-02-15T12:31:23.451Z,18.07
2023-02-15T12:33:53.626Z,19.47
2023-02-15T12:36:23.489Z,18.83
2023-02-15T12:39:18.363Z,18.37
2023-02-15T12:41:47.629Z,18.43
2023-02-15T12:44:20.053Z,16.37
2023-02-15T12:47:03.450Z,18.23
2023-02-15T12:49:47.644Z,17.13
2023-02-15T12:52:21.155Z,20.87
2023-02-15T12:54:48.358Z,19.20
2023-02-15T12:57:23.846Z,18.43
2023-02-15T12:59:52.406Z,17.50
2023-02-15T13:02:29.100Z,19.10
2023-02-15T13:04:58.644Z,19.47
2023-02-15T13:07:31.071Z,19.20
2023-02-15T13:09:58.752Z,19.10
2023-02-15T13:12:31.539Z,19.83
2023-02-15T13:15:00.137Z,17.67
2023-02-15T13:17:35.126Z,17.73
2023-02-15T13:20:23.801Z,20.47
2023-02-15T13:22:54.928Z,20.20
2023-02-15T13:25:28.048Z,17.43
2023-02-15T13:27:58.470Z,20.13
2023-02-15T13:30:36.018Z,19.60
2023-02-15T13:33:11.479Z,18.50
2023-02-15T13:35:55.964Z,18.90
2023-02-15T13:38:47.862Z,19.17
2023-02-15T13:41:20.684Z,19.73
2023-02-15T13:44:03.558Z,19.67
2023-02-15T13:46:46.807Z,20.43
2023-02-15T13:49:47.066Z,20.23
2023-02-15T13:52:22.134Z,19.80
2023-02-15T13:54:58.192Z,25.97
2023-02-15T13:57:58.415Z,24.00
2023-02-15T14:00:46.975Z,22.57
2023-02-15T14:03:44.912Z,23.30
2023-02-15T14:06:17.604Z,22.03
2023-02-15T14:08:44.267Z,20.83
2023-02-15T14:11:29.032Z,22.27
2023-02-15T14:14:20.860Z,23.73
2023-02-15T14:17:07.545Z,21.33
2023-02-15T14:19:53.772Z,21.33
2023-02-15T14:22:42.654Z,22.60
2023-02-15T14:25:31.451Z,23.80
2023-02-15T14:28:07.178Z,21.67
2023-02-15T14:30:38.106Z,23.53
2023-02-15T14:33:25.910Z,22.97
2023-02-15T14:35:52.861Z,26.23
2023-02-15T14:38:47.956Z,30.00
2023-02-15T14:41:33.194Z,24.57
2023-02-15T14:44:28.025Z,23.43
2023-02-15T14:46:57.511Z,23.80
2023-02-15T14:49:31.271Z,22.70
2023-02-15T14:52:08.113Z,25.80
2023-02-15T14:54:34.950Z,25.30
2023-02-15T14:57:01.521Z,24.80
2023-02-15T14:59:51.027Z,25.37
2023-02-15T15:02:42.713Z,25.17
2023-02-15T15:05:14.149Z,25.07
2023-02-15T15:07:54.724Z,25.43
2023-02-15T15:10:21.628Z,25.63
2023-02-15T15:12:54.117Z,24.63
2023-02-15T15:15:32.616Z,24.97
2023-02-15T15:18:02.437Z,24.10
2023-02-15T15:20:52.139Z,24.20
2023-02-15T15:23:19.061Z,25.20
2023-02-15T15:25:53.184Z,27.30
2023-02-15T15:28:35.161Z,24.67
2023-02-15T15:31:11.546Z,22.50
2023-02-15T15:33:57.952Z,23.93
2023-02-15T15:36:52.541Z,22.60
2023-02-15T15:39:40.093Z,22.07
2023-02-15T15:42:54.896Z,22.03
2023-02-15T15:45:41.200Z,20.97
2023-02-15T15:48:37.514Z,22.13
2023-02-15T15:51:11.389Z,22.50
2023-02-15T15:53:46.733Z,22.23
2023-02-15T15:56:24.321Z,20.47
2023-02-15T15:59:07.979Z,20.53
2023-02-15T16:01:43.174Z,20.37
2023-02-15T16:04:15.466Z,20.90
2023-02-15T16:06:42.734Z,20.93
2023-02-15T16:09:18.524Z,22.07
2023-02-15T16:11:47.927Z,21.50
2023-02-15T16:14:22.432Z,21.43
2023-02-15T16:16:52.140Z,21.40
2023-02-15T16:19:29.033Z,20.57
2023-02-15T16:21:58.522Z,22.10
2023-02-15T16:25:10.401Z,22.97
2023-02-15T16:27:42.580Z,21.37
2023-02-15T16:30:24.367Z,20.90
2023-02-15T16:33:08.121Z,20.37
2023-02-15T16:35:36.877Z,20.47
2023-02-15T16:38:04.743Z,21.10
2023-02-15T16:40:56.884Z,20.27
2023-02-15T16:43:27.410Z,20.23
2023-02-15T16:46:08.082Z,22.23
2023-02-15T16:48:38.585Z,21.43
2023-02-15T16:51:05.858Z,31.83
2023-02-15T16:53:32.735Z,25.70
2023-02-15T16:56:03.063Z,23.57
2023-02-15T16:58:45.678Z,22.07
2023-02-15T17:01:15.663Z,21.27
2023-02-15T17:03:43.190Z,23.67
2023-02-15T17:06:26.778Z,21.57
2023-02-15T17:09:03.384Z,21.47
2023-02-15T17:11:41.191Z,22.73
2023-02-15T17:14:09.722Z,22.87
2023-02-15T17:16:49.972Z,23.97
2023-02-15T17:19:30.344Z,22.77
2023-02-15T17:22:07.547Z,22.93
2023-02-15T17:24:42.648Z,25.07
2023-02-15T17:27:17.714Z,25.90
2023-02-15T17:29:52.891Z,26.23
2023-02-15T17:32:23.305Z,25.30
2023-02-15T17:35:21.231Z,22.23
2023-02-15T17:37:49.955Z,24.23
2023-02-15T17:40:24.572Z,22.93
2023-02-15T17:42:51.697Z,23.80
2023-02-15T17:45:18.944Z,22.30
2023-02-15T17:47:48.104Z,21.90
2023-02-15T17:50:23.665Z,24.17
2023-02-15T17:52:51.678Z,22.37
2023-02-15T17:55:36.174Z,23.80
2023-02-15T17:58:06.112Z,23.27
2023-02-15T18:00:54.898Z,22.77
2023-02-15T18:03:40.276Z,25.80
2023-02-15T18:06:25.671Z,23.07
2023-02-15T18:09:12.661Z,22.57
2023-02-15T18:11:39.611Z,22.87
2023-02-15T18:14:08.506Z,23.30
2023-02-15T18:16:38.742Z,24.17
2023-02-15T18:19:06.976Z,27.40
2023-02-15T18:21:33.992Z,52.77
2023-02-15T18:24:00.767Z,27.73
2023-02-15T18:26:28.855Z,23.90
2023-02-15T18:28:55.682Z,23.23
2023-02-15T18:31:23.996Z,24.50
2023-02-15T18:33:54.378Z,21.53
2023-02-15T18:36:28.427Z,20.73
2023-02-15T18:38:56.494Z,20.63
2023-02-15T18:41:23.685Z,26.80
2023-02-15T18:43:51.452Z,23.13
2023-02-15T18:46:18.367Z,21.47
2023-02-15T18:48:46.436Z,26.23
2023-02-15T18:51:22.243Z,24.27
2023-02-15T18:53:52.833Z,23.37
2023-02-15T18:56:22.367Z,25.17
2023-02-15T18:58:49.390Z,25.70
2023-02-15T19:01:18.830Z,26.00
2023-02-15T19:03:50.813Z,28.90
2023-02-15T19:06:20.650Z,26.57
2023-02-15T19:08:50.686Z,28.87
2023-02-15T19:11:23.312Z,27.23
2023-02-15T19:13:51.770Z,26.60
2023-02-15T19:16:33.258Z,30.87
2023-02-15T19:19:01.240Z,34.37
2023-02-15T19:21:31.908Z,29.90
2023-02-15T19:24:03.338Z,28.47
2023-02-15T19:26:44.571Z,29.20
2023-02-15T19:29:23.770Z,30.33
2023-02-15T19:31:50.589Z,31.30
2023-02-15T19:34:18.715Z,31.43
2023-02-15T19:36:50.875Z,31.27
2023-02-15T19:39:23.934Z,32.67
2023-02-15T19:41:50.860Z,35.60
2023-02-15T19:44:18.317Z,34.37
2023-02-15T19:46:45.752Z,31.73
2023-02-15T19:49:12.842Z,32.60
2023-02-15T19:51:39.781Z,33.27
2023-02-15T19:54:34.110Z,33.23
2023-02-15T19:57:01.425Z,34.07
2023-02-15T19:59:32.277Z,36.40
2023-02-15T20:01:59.157Z,34.23
2023-02-15T20:04:26.457Z,33.70
2023-02-15T20:06:55.803Z,32.63
2023-02-15T20:09:31.979Z,31.87
2023-02-15T20:11:58.646Z,28.57
2023-02-15T20:14:25.402Z,29.97
2023-02-15T20:16:52.061Z,29.10
2023-02-15T20:19:18.797Z,30.27
2023-02-15T20:21:51.892Z,30.60
2023-02-15T20:24:21.634Z,27.97
2023-02-15T20:26:48.369Z,29.13
2023-02-15T20:29:18.483Z,29.50
2023-02-15T20:31:45.576Z,29.30
2023-02-15T20:34:12.414Z,27.13
2023-02-15T20:36:39.865Z,26.57
2023-02-15T20:39:17.326Z,28.93
2023-02-15T20:41:50.027Z,28.93
2023-02-15T20:44:18.383Z,26.73
2023-02-15T20:46:45.061Z,27.23
2023-02-15T20:49:12.038Z,26.10
2023-02-15T20:51:41.462Z,25.57
2023-02-15T20:54:22.816Z,24.93
2023-02-15T20:56:50.289Z,22.63
2023-02-15T20:59:30.557Z,23.90
2023-02-15T21:02:02.990Z,24.47
2023-02-15T21:04:32.349Z,24.07
2023-02-15T21:07:00.642Z,24.60
2023-02-15T21:09:27.847Z,24.23
2023-02-15T21:11:58.103Z,23.57
2023-02-15T21:14:26.861Z,23.13
2023-02-15T21:16:53.920Z,23.50
2023-02-15T21:19:22.623Z,22.67
2023-02-15T21:21:52.209Z,22.80
2023-02-15T21:24:28.052Z,23.87
2023-02-15T21:26:55.832Z,24.00
2023-02-15T21:29:25.508Z,22.17
2023-02-15T21:31:52.527Z,23.20
2023-02-15T21:34:19.742Z,23.37
2023-02-15T21:36:48.396Z,23.27
2023-02-15T21:39:24.195Z,23.50
2023-02-15T21:42:11.664Z,24.63
2023-02-15T21:44:57.225Z,23.27
2023-02-15T21:47:47.684Z,23.07
2023-02-15T21:50:42.138Z,24.13
2023-02-15T21:53:20.018Z,24.17
2023-02-15T21:55:46.666Z,23.20
2023-02-15T21:58:21.013Z,24.27
2023-02-15T22:00:48.933Z,23.77
2023-02-15T22:03:16.018Z,23.17
2023-02-15T22:05:42.705Z,23.27
2023-02-15T22:08:12.904Z,23.37
2023-02-15T22:10:41.092Z,23.57
2023-02-15T22:13:29.239Z,23.37
2023-02-15T22:15:56.813Z,22.80
2023-02-15T22:18:26.836Z,21.17
2023-02-15T22:20:54.649Z,21.53
2023-02-15T22:23:22.935Z,20.87
2023-02-15T22:25:56.920Z,21.37
2023-02-15T22:28:29.067Z,20.37
2023-02-15T22:30:55.809Z,20.30
2023-02-15T22:33:34.239Z,19.93
2023-02-15T22:36:01.317Z,19.20
2023-02-15T22:38:28.131Z,18.27
2023-02-15T22:40:58.200Z,19.67
2023-02-15T22:43:37.965Z,18.83
2023-02-15T22:46:08.191Z,17.67
2023-02-15T22:48:35.656Z,18.63
2023-02-15T22:51:02.717Z,17.60
2023-02-15T22:53:29.775Z,17.80
2023-02-15T22:55:56.813Z,17.60
2023-02-15T22:58:28.087Z,16.47
2023-02-15T23:00:55.628Z,16.20
2023-02-15T23:03:28.950Z,15.63
2023-02-15T23:05:55.605Z,15.43
2023-02-15T23:08:22.414Z,15.20
2023-02-15T23:10:54.042Z,14.77
2023-02-15T23:13:27.073Z,14.67
2023-02-15T23:16:00.181Z,14.50
2023-02-15T23:18:31.304Z,16.13
2023-02-15T23:21:03.530Z,14.37
2023-02-15T23:23:30.388Z,15.33
2023-02-15T23:25:57.418Z,14.27
2023-02-15T23:28:44.427Z,15.00
2023-02-15T23:31:31.414Z,15.67
2023-02-15T23:33:59.190Z,15.37
2023-02-15T23:36:30.726Z,15.53
2023-02-15T23:39:20.656Z,15.90
2023-02-15T23:41:47.338Z,16.03
2023-02-15T23:44:14.559Z,15.33
2023-02-15T23:46:44.380Z,16.50
2023-02-15T23:49:15.363Z,16.87
2023-02-15T23:51:51.291Z,17.47
2023-02-15T23:54:20.620Z,16.20
2023-02-15T23:56:55.779Z,15.83
2023-02-15T23:59:25.800Z,16.13
